Time;durP1;ratioP1;P1;durP2;ratioP2;P2;SDS_P1;SDS_P2;PMS_P1;PMS_P2;Temp;Humidity;BMP_temperature;BMP_pressure;BME280_temperature;BME280_humidity;BME280_pressure;Samples;Min_cycle;Max_cycle;Signal;HPM_P1;HPM_P2
2023/05/03 00:02:00;;;;;;;;;;;13.70;99.90;;;;;;5098468;28;19912;-63
2023/05/03 00:04:26;;;;;;;;;;;13.70;99.90;;;;;;5084404;28;19951;-63
2023/05/03 00:06:52;;;;;;;;;;;13.60;99.90;;;;;;5101564;28;20347;-62
2023/05/03 00:09:17;;;;;;;;;;;13.60;99.90;;;;;;5093076;28;19913;-62
2023/05/03 00:11:43;;;;;;;;;;;13.60;99.90;;;;;;5080597;28;19915;-63
2023/05/03 00:14:08;;;;;;;;;;;13.70;99.90;;;;;;5087425;28;19912;-63
2023/05/03 00:16:34;;;;;;;;;;;13.90;99.90;;;;;;5089516;28;20292;-62
2023/05/03 00:19:00;;;;;;;;;;;13.70;99.90;;;;;;5084645;28;19999;-62
2023/05/03 00:21:25;;;;;;;;;;;13.70;99.90;;;;;;5098588;28;20345;-62
2023/05/03 00:23:51;;;;;;;;;;;13.70;99.90;;;;;;5084913;28;19912;-63
2023/05/03 00:26:17;;;;;;;;;;;13.70;99.90;;;;;;5100933;28;19958;-63
2023/05/03 00:28:42;;;;;;;;;;;13.70;99.90;;;;;;5097352;28;19963;-63
2023/05/03 00:31:09;;;;;;;;;;;13.70;99.90;;;;;;5085535;28;19913;-62
2023/05/03 00:33:36;;;;;;;;;;;13.70;99.90;;;;;;5098878;28;19908;-62
2023/05/03 00:36:08;;;;;;;;;;;13.70;99.90;;;;;;5080893;28;20019;-62
2023/05/03 00:38:34;;;;;;;;;;;13.70;99.90;;;;;;5079516;28;19912;-62
2023/05/03 00:59:28;;;;;;;;;;;13.70;99.90;;;;;;5102275;27;2308474;-62
2023/05/03 01:01:53;;;;;;;;;;;13.80;99.90;;;;;;5177900;27;19918;-62
2023/05/03 01:04:20;;;;;;;;;;;13.80;99.90;;;;;;5174265;27;19907;-62
2023/05/03 01:07:09;;;;;;;;;;;13.80;99.90;;;;;;5163219;27;20019;-62
2023/05/03 01:09:38;;;;;;;;;;;13.80;99.90;;;;;;5115265;27;19915;-62
2023/05/03 01:12:10;;;;;;;;;;;13.80;99.90;;;;;;5156416;27;19919;-62
2023/05/03 01:14:49;;;;;;;;;;;13.80;99.90;;;;;;5172189;27;19952;-62
2023/05/03 01:17:15;;;;;;;;;;;13.80;99.90;;;;;;5160798;27;20001;-62
2023/05/03 01:19:51;;;;;;;;;;;13.80;99.90;;;;;;5168823;27;20348;-62
2023/05/03 01:22:32;;;;;;;;;;;13.80;99.90;;;;;;5158572;27;20363;-62
2023/05/03 01:25:08;;;;;;;;;;;13.80;99.90;;;;;;5156541;27;19907;-62
2023/05/03 01:27:35;;;;;;;;;;;13.80;99.90;;;;;;5158153;27;19926;-62
2023/05/03 01:30:02;;;;;;;;;;;13.80;99.90;;;;;;5172550;27;19929;-62
2023/05/03 01:32:51;;;;;;;;;;;13.80;99.90;;;;;;5167827;27;20422;-62
2023/05/03 01:35:19;;;;;;;;;;;13.80;99.90;;;;;;5174091;27;19907;-62
2023/05/03 01:37:45;;;;;;;;;;;13.80;99.90;;;;;;5169245;27;19958;-62
2023/05/03 01:40:15;;;;;;;;;;;13.80;99.90;;;;;;5157678;27;19907;-62
2023/05/03 01:42:41;;;;;;;;;;;13.80;99.90;;;;;;5168119;27;19911;-62
2023/05/03 01:45:07;;;;;;;;;;;13.70;99.90;;;;;;5159094;27;19928;-62
2023/05/03 01:47:32;;;;;;;;;;;13.70;99.90;;;;;;5171109;27;19966;-62
2023/05/03 01:49:58;;;;;;;;;;;13.70;99.90;;;;;;5175568;27;19929;-62
2023/05/03 01:52:24;;;;;;;;;;;13.70;99.90;;;;;;5175637;27;19958;-62
2023/05/03 01:54:50;;;;;;;;;;;13.70;99.90;;;;;;5174959;27;20357;-62
2023/05/03 01:57:15;;;;;;;;;;;13.60;99.90;;;;;;5160122;27;19976;-62
2023/05/03 01:59:41;;;;;;;;;;;13.60;99.90;;;;;;5154752;27;19980;-62
2023/05/03 02:02:07;;;;;;;;;;;13.60;99.90;;;;;;5159625;27;19918;-63
2023/05/03 02:04:32;;;;;;;;;;;13.60;99.90;;;;;;5172635;27;19914;-62
2023/05/03 02:06:58;;;;;;;;;;;13.60;99.90;;;;;;5166731;27;20255;-62
2023/05/03 02:09:24;;;;;;;;;;;13.60;99.90;;;;;;5148422;27;20366;-63
2023/05/03 02:11:49;;;;;;;;;;;13.60;99.90;;;;;;5144518;27;19952;-63
2023/05/03 02:14:15;;;;;;;;;;;13.60;99.90;;;;;;5159672;27;19907;-62
2023/05/03 02:16:41;;;;;;;;;;;13.60;99.90;;;;;;5144291;27;19937;-62
2023/05/03 02:19:07;;;;;;;;;;;13.60;99.90;;;;;;5151613;27;19919;-63
2023/05/03 02:21:33;;;;;;;;;;;13.50;99.90;;;;;;5141245;27;19908;-62
2023/05/03 02:23:59;;;;;;;;;;;13.50;99.90;;;;;;5143212;27;19915;-62
2023/05/03 02:26:25;;;;;;;;;;;13.50;99.90;;;;;;5157134;27;19933;-63
2023/05/03 02:28:51;;;;;;;;;;;13.60;99.90;;;;;;5141957;27;20303;-62
2023/05/03 02:31:16;;;;;;;;;;;13.50;99.90;;;;;;5140931;27;19911;-62
2023/05/03 02:33:42;;;;;;;;;;;13.50;99.90;;;;;;5150970;27;19914;-62
2023/05/03 02:36:08;;;;;;;;;;;13.50;99.90;;;;;;5161110;27;20006;-62
2023/05/03 02:38:33;;;;;;;;;;;13.40;99.90;;;;;;5160418;27;19915;-62
2023/05/03 02:40:59;;;;;;;;;;;13.40;99.90;;;;;;5155374;27;19952;-62
2023/05/03 02:43:24;;;;;;;;;;;13.40;99.90;;;;;;5141300;27;19960;-62
2023/05/03 02:45:50;;;;;;;;;;;13.40;99.90;;;;;;5146298;27;20312;-62
2023/05/03 02:48:16;;;;;;;;;;;13.40;99.90;;;;;;5157023;27;19911;-62
2023/05/03 02:50:41;;;;;;;;;;;13.40;99.90;;;;;;5162168;27;19950;-62
2023/05/03 02:53:07;;;;;;;;;;;13.40;99.90;;;;;;5144201;27;20278;-62
2023/05/03 02:55:33;;;;;;;;;;;13.30;99.90;;;;;;5141063;27;19907;-62
2023/05/03 02:57:58;;;;;;;;;;;13.30;99.90;;;;;;5141123;27;19912;-62
2023/05/03 03:00:24;;;;;;;;;;;13.30;99.90;;;;;;5140765;27;19930;-62
2023/05/03 03:02:50;;;;;;;;;;;13.40;99.90;;;;;;5141289;27;19907;-63
2023/05/03 03:05:16;;;;;;;;;;;13.30;99.90;;;;;;5151274;27;19956;-62
2023/05/03 03:07:42;;;;;;;;;;;13.30;99.90;;;;;;5140998;27;19907;-62
2023/05/03 03:10:08;;;;;;;;;;;13.30;99.90;;;;;;5141053;27;20438;-62
2023/05/03 03:12:37;;;;;;;;;;;13.20;99.90;;;;;;5140738;27;19994;-62
2023/05/03 03:15:02;;;;;;;;;;;13.30;99.90;;;;;;5140928;27;19915;-62
2023/05/03 03:17:28;;;;;;;;;;;13.30;99.90;;;;;;5140235;27;20285;-62
2023/05/03 03:19:54;;;;;;;;;;;13.30;99.90;;;;;;5140585;27;20037;-62
2023/05/03 03:22:19;;;;;;;;;;;13.20;99.90;;;;;;5151845;27;19918;-62
2023/05/03 03:24:45;;;;;;;;;;;13.20;99.90;;;;;;5139604;27;19912;-62
2023/05/03 03:27:11;;;;;;;;;;;13.20;99.90;;;;;;5153403;27;19918;-62
2023/05/03 03:29:36;;;;;;;;;;;13.20;99.90;;;;;;5141245;27;19912;-62
2023/05/03 03:32:02;;;;;;;;;;;13.20;99.90;;;;;;5140799;27;19913;-62
2023/05/03 03:34:27;;;;;;;;;;;13.20;99.90;;;;;;5155748;27;20031;-62
2023/05/03 03:36:53;;;;;;;;;;;13.20;99.90;;;;;;5147860;27;20442;-62
2023/05/03 03:39:19;;;;;;;;;;;13.20;99.90;;;;;;5143769;27;20310;-62
2023/05/03 03:41:44;;;;;;;;;;;13.20;99.90;;;;;;5140962;27;19915;-62
2023/05/03 03:44:10;;;;;;;;;;;13.10;99.90;;;;;;5140568;27;19911;-62
2023/05/03 03:46:36;;;;;;;;;;;13.10;99.90;;;;;;5142164;27;20444;-62
2023/05/03 03:49:01;;;;;;;;;;;13.10;99.90;;;;;;5154271;27;19940;-62
2023/05/03 03:51:27;;;;;;;;;;;13.10;99.90;;;;;;5156486;27;19911;-62
2023/05/03 03:53:52;;;;;;;;;;;13.10;99.90;;;;;;5159588;27;19911;-63
2023/05/03 03:56:18;;;;;;;;;;;13.10;99.90;;;;;;5140822;27;19907;-62
2023/05/03 03:58:44;;;;;;;;;;;13.00;99.90;;;;;;5139336;27;19919;-62
2023/05/03 04:01:10;;;;;;;;;;;13.00;99.90;;;;;;5138691;27;20397;-62
2023/05/03 04:03:36;;;;;;;;;;;13.00;99.90;;;;;;5153422;27;19932;-62
2023/05/03 04:06:02;;;;;;;;;;;13.00;99.90;;;;;;5148353;27;20456;-62
2023/05/03 04:08:27;;;;;;;;;;;13.00;99.90;;;;;;5139032;27;19912;-62
2023/05/03 04:10:53;;;;;;;;;;;13.00;99.90;;;;;;5156404;27;19911;-62
2023/05/03 04:13:18;;;;;;;;;;;12.90;99.90;;;;;;5160430;27;20384;-62
2023/05/03 04:15:44;;;;;;;;;;;12.90;99.90;;;;;;5149359;27;19922;-62
2023/05/03 04:18:10;;;;;;;;;;;12.90;99.90;;;;;;5140885;27;19911;-62
2023/05/03 04:20:36;;;;;;;;;;;12.90;99.90;;;;;;5145229;27;20399;-63
2023/05/03 04:23:02;;;;;;;;;;;12.90;99.90;;;;;;5139582;27;19907;-62
2023/05/03 04:25:30;;;;;;;;;;;12.80;99.90;;;;;;5152926;27;19963;-62
2023/05/03 04:27:56;;;;;;;;;;;12.80;99.90;;;;;;5159942;27;19907;-62
2023/05/03 04:30:23;;;;;;;;;;;12.80;99.90;;;;;;5130514;27;19911;-62
2023/05/03 04:32:52;;;;;;;;;;;12.80;99.90;;;;;;5142304;27;20006;-62
2023/05/03 04:35:18;;;;;;;;;;;12.80;99.90;;;;;;5151205;27;20280;-62
2023/05/03 04:37:44;;;;;;;;;;;12.80;99.90;;;;;;5145396;27;19915;-62
2023/05/03 04:40:11;;;;;;;;;;;12.80;99.90;;;;;;5150958;27;19907;-62
2023/05/03 04:42:37;;;;;;;;;;;12.70;99.90;;;;;;5153482;27;19912;-62
2023/05/03 04:45:05;;;;;;;;;;;12.70;99.90;;;;;;5142277;27;19974;-62
2023/05/03 04:47:31;;;;;;;;;;;12.80;99.90;;;;;;5142968;27;19923;-62
2023/05/03 04:49:57;;;;;;;;;;;12.70;99.90;;;;;;5139516;27;19954;-62
2023/05/03 04:52:23;;;;;;;;;;;12.70;99.90;;;;;;5158188;27;20014;-62
2023/05/03 04:54:49;;;;;;;;;;;12.70;99.90;;;;;;5160093;27;19907;-62
2023/05/03 04:57:14;;;;;;;;;;;12.70;99.90;;;;;;5159655;27;19918;-62
2023/05/03 04:59:40;;;;;;;;;;;12.70;99.90;;;;;;5159767;27;19925;-62
2023/05/03 05:02:06;;;;;;;;;;;12.60;99.90;;;;;;5159659;27;19911;-62
2023/05/03 05:04:31;;;;;;;;;;;12.60;99.90;;;;;;5148736;27;19907;-62
2023/05/03 05:06:58;;;;;;;;;;;12.60;99.90;;;;;;5159966;27;20357;-62
2023/05/03 05:09:24;;;;;;;;;;;12.60;99.90;;;;;;5159730;27;19914;-63
2023/05/03 05:11:50;;;;;;;;;;;12.60;99.90;;;;;;5159903;27;19950;-62
2023/05/03 05:14:16;;;;;;;;;;;12.50;99.90;;;;;;5159696;27;19915;-62
2023/05/03 05:16:41;;;;;;;;;;;12.50;99.90;;;;;;5159751;27;20039;-62
2023/05/03 05:19:07;;;;;;;;;;;12.50;99.90;;;;;;5159380;27;19911;-62
2023/05/03 05:21:33;;;;;;;;;;;12.50;99.90;;;;;;5157468;27;20381;-62
2023/05/03 05:23:59;;;;;;;;;;;12.50;99.90;;;;;;5158195;27;20481;-62
2023/05/03 05:26:26;;;;;;;;;;;12.50;99.90;;;;;;5158255;27;19936;-62
2023/05/03 05:28:51;;;;;;;;;;;12.50;99.90;;;;;;5156103;27;20365;-62
2023/05/03 05:31:17;;;;;;;;;;;12.60;99.90;;;;;;5150666;27;19908;-62
2023/05/03 05:33:43;;;;;;;;;;;12.60;99.90;;;;;;5138805;27;20204;-62
2023/05/03 05:36:24;;;;;;;;;;;12.60;99.90;;;;;;5145115;27;20334;-62
2023/05/03 05:38:56;;;;;;;;;;;12.60;99.90;;;;;;5144085;27;19915;-62
2023/05/03 05:41:22;;;;;;;;;;;12.60;99.90;;;;;;5138704;28;19908;-63
2023/05/03 05:43:48;;;;;;;;;;;12.60;99.90;;;;;;5138612;27;19932;-62
2023/05/03 05:46:13;;;;;;;;;;;12.60;99.90;;;;;;5143896;27;19932;-62
2023/05/03 05:48:40;;;;;;;;;;;12.60;99.90;;;;;;5147922;27;20296;-62
2023/05/03 05:51:05;;;;;;;;;;;12.60;99.90;;;;;;5156896;27;19915;-62
2023/05/03 05:53:31;;;;;;;;;;;12.70;99.90;;;;;;5163237;27;19914;-62
2023/05/03 05:55:57;;;;;;;;;;;12.70;99.90;;;;;;5145659;27;19911;-62
2023/05/03 05:58:22;;;;;;;;;;;12.80;99.90;;;;;;5142287;27;20010;-63
2023/05/03 06:00:48;;;;;;;;;;;12.80;99.90;;;;;;5141849;27;19970;-62
2023/05/03 06:03:14;;;;;;;;;;;12.80;99.90;;;;;;5141779;27;19908;-62
2023/05/03 06:05:40;;;;;;;;;;;12.90;99.90;;;;;;5142072;27;19915;-62
2023/05/03 06:08:06;;;;;;;;;;;12.90;99.90;;;;;;5142172;27;20278;-62
2023/05/03 06:10:32;;;;;;;;;;;13.00;99.90;;;;;;5153945;27;19911;-62
2023/05/03 06:12:58;;;;;;;;;;;13.00;99.90;;;;;;5153733;27;19907;-62
2023/05/03 06:15:25;;;;;;;;;;;13.00;99.90;;;;;;5149043;27;19914;-62
2023/05/03 06:17:50;;;;;;;;;;;13.00;99.90;;;;;;5141825;27;19915;-62
2023/05/03 06:20:17;;;;;;;;;;;13.10;99.90;;;;;;5142471;27;19967;-62
2023/05/03 06:22:43;;;;;;;;;;;13.10;99.90;;;;;;5153780;27;20313;-62
2023/05/03 06:25:09;;;;;;;;;;;13.10;99.90;;;;;;5141375;27;19914;-62
2023/05/03 06:27:35;;;;;;;;;;;13.20;99.90;;;;;;5140972;27;19911;-62
2023/05/03 06:30:01;;;;;;;;;;;13.20;99.90;;;;;;5150998;27;20482;-62
2023/05/03 06:32:27;;;;;;;;;;;13.20;99.90;;;;;;5162516;27;20011;-62
2023/05/03 06:34:52;;;;;;;;;;;13.30;99.90;;;;;;5162139;27;19912;-62
2023/05/03 06:37:18;;;;;;;;;;;13.30;99.90;;;;;;5161809;27;19941;-62
2023/05/03 06:39:44;;;;;;;;;;;13.40;99.90;;;;;;5150557;27;20266;-62
2023/05/03 06:42:09;;;;;;;;;;;13.50;99.90;;;;;;5160474;27;19933;-62
2023/05/03 06:44:35;;;;;;;;;;;13.50;99.90;;;;;;5161996;27;20362;-62
2023/05/03 06:47:01;;;;;;;;;;;13.60;99.90;;;;;;5158957;27;19952;-62
2023/05/03 06:49:26;;;;;;;;;;;13.60;99.90;;;;;;5161532;27;19911;-62
2023/05/03 06:51:52;;;;;;;;;;;13.70;99.90;;;;;;5161686;27;19907;-62
2023/05/03 06:54:18;;;;;;;;;;;13.70;99.90;;;;;;5161216;27;19914;-62
2023/05/03 06:56:45;;;;;;;;;;;13.80;99.90;;;;;;5147074;27;20029;-62
2023/05/03 06:59:10;;;;;;;;;;;13.90;99.90;;;;;;5140261;27;20311;-62
2023/05/03 07:01:36;;;;;;;;;;;13.90;99.90;;;;;;5140949;27;19911;-62
2023/05/03 07:04:01;;;;;;;;;;;13.90;99.90;;;;;;5140896;27;19956;-62
2023/05/03 07:06:27;;;;;;;;;;;14.00;99.90;;;;;;5142489;27;19934;-62
2023/05/03 07:08:53;;;;;;;;;;;14.10;99.90;;;;;;5153370;27;19911;-62
2023/05/03 07:11:22;;;;;;;;;;;14.20;99.90;;;;;;5142404;27;19958;-62
2023/05/03 07:13:57;;;;;;;;;;;14.20;99.90;;;;;;5151844;27;19953;-62
2023/05/03 07:16:24;;;;;;;;;;;14.30;99.90;;;;;;5147266;27;19972;-62
2023/05/03 07:18:50;;;;;;;;;;;14.30;99.90;;;;;;5154359;27;19917;-62
2023/05/03 07:21:15;;;;;;;;;;;14.40;99.90;;;;;;5138923;27;20006;-62
2023/05/03 07:23:43;;;;;;;;;;;14.50;99.90;;;;;;5151195;27;20370;-62
2023/05/03 07:26:09;;;;;;;;;;;14.60;99.90;;;;;;5148458;27;19918;-62
2023/05/03 07:28:35;;;;;;;;;;;14.60;99.90;;;;;;5144781;27;19915;-62
2023/05/03 07:31:01;;;;;;;;;;;14.80;99.90;;;;;;5141581;27;19956;-62
2023/05/03 07:33:27;;;;;;;;;;;14.90;99.90;;;;;;5140235;27;19997;-62
2023/05/03 07:35:52;;;;;;;;;;;14.90;99.90;;;;;;5139763;27;20426;-62
2023/05/03 07:38:18;;;;;;;;;;;15.00;99.90;;;;;;5139566;27;20006;-62
2023/05/03 07:40:44;;;;;;;;;;;15.00;99.90;;;;;;5139802;27;19955;-62
2023/05/03 07:43:09;;;;;;;;;;;15.10;99.90;;;;;;5140025;27;19908;-62
2023/05/03 07:45:35;;;;;;;;;;;15.20;99.90;;;;;;5139702;27;19915;-62
2023/05/03 07:48:01;;;;;;;;;;;15.20;99.90;;;;;;5139489;27;19931;-62
2023/05/03 07:50:27;;;;;;;;;;;15.30;99.90;;;;;;5139730;27;19911;-62
2023/05/03 07:52:52;;;;;;;;;;;15.30;99.90;;;;;;5139926;27;19914;-62
2023/05/03 07:55:18;;;;;;;;;;;15.40;99.90;;;;;;5139661;27;19918;-62
2023/05/03 07:57:44;;;;;;;;;;;15.50;99.90;;;;;;5139509;27;19934;-63
2023/05/03 08:00:11;;;;;;;;;;;15.60;99.90;;;;;;5139417;27;19919;-63
2023/05/03 08:02:37;;;;;;;;;;;15.70;99.90;;;;;;5139653;27;19908;-63
2023/05/03 08:05:06;;;;;;;;;;;15.80;99.90;;;;;;5139693;27;19914;-63
2023/05/03 08:07:31;;;;;;;;;;;16.00;99.90;;;;;;5139051;27;20437;-63
2023/05/03 08:09:57;;;;;;;;;;;16.00;99.90;;;;;;5151232;27;20018;-63
2023/05/03 08:14:05;;;;;;;;;;;16.10;99.90;;;;;;5088305;27;2362057;-63
2023/05/03 08:16:31;;;;;;;;;;;16.20;99.90;;;;;;5177773;27;19958;-63
2023/05/03 08:18:57;;;;;;;;;;;16.30;99.90;;;;;;5177469;27;19914;-63
2023/05/03 08:21:23;;;;;;;;;;;16.30;99.90;;;;;;5177681;27;19907;-63
2023/05/03 08:23:49;;;;;;;;;;;16.30;99.90;;;;;;5177442;27;19921;-63
2023/05/03 08:26:16;;;;;;;;;;;16.30;99.90;;;;;;5176993;27;19911;-63
2023/05/03 08:28:41;;;;;;;;;;;16.30;99.90;;;;;;5177481;27;20071;-63
2023/05/03 08:31:07;;;;;;;;;;;16.40;99.90;;;;;;5177685;27;19945;-63
2023/05/03 08:33:33;;;;;;;;;;;16.40;99.90;;;;;;5177764;27;20009;-63
2023/05/03 08:35:58;;;;;;;;;;;16.40;99.90;;;;;;5177485;27;20292;-63
2023/05/03 08:38:24;;;;;;;;;;;16.50;99.90;;;;;;5177823;27;20369;-63
2023/05/03 08:40:50;;;;;;;;;;;16.50;99.90;;;;;;5177346;27;19907;-63
2023/05/03 08:43:18;;;;;;;;;;;16.60;99.90;;;;;;5177461;27;19907;-63
2023/05/03 08:45:44;;;;;;;;;;;16.60;99.90;;;;;;5157751;27;19907;-63
2023/05/03 08:48:10;;;;;;;;;;;16.70;99.90;;;;;;5156610;27;19913;-63
2023/05/03 08:50:40;;;;;;;;;;;16.80;99.90;;;;;;5175895;27;19964;-63
2023/05/03 08:53:10;;;;;;;;;;;16.90;99.60;;;;;;5176630;27;19915;-63
2023/05/03 08:55:36;;;;;;;;;;;16.90;97.70;;;;;;5177022;27;19936;-63
2023/05/03 08:58:11;;;;;;;;;;;17.00;95.70;;;;;;5176936;27;19953;-63
2023/05/03 09:00:37;;;;;;;;;;;17.00;99.20;;;;;;5176656;27;20296;-63
2023/05/03 09:03:03;;;;;;;;;;;17.30;98.20;;;;;;5176922;27;19907;-63
2023/05/03 09:05:29;;;;;;;;;;;17.50;99.80;;;;;;5177097;27;19907;-63
2023/05/03 09:08:04;;;;;;;;;;;17.70;96.90;;;;;;5176963;27;19908;-63
2023/05/03 09:10:30;;;;;;;;;;;17.90;98.50;;;;;;5176540;27;19914;-63
2023/05/03 09:12:57;;;;;;;;;;;18.10;98.50;;;;;;5176576;27;19957;-63
2023/05/03 09:15:23;;;;;;;;;;;18.20;96.50;;;;;;5176446;27;19907;-63
2023/05/03 09:18:07;;;;;;;;;;;18.30;95.20;;;;;;5176531;27;19956;-63
2023/05/03 09:20:35;;;;;;;;;;;18.40;86.70;;;;;;5176356;27;19932;-63
2023/05/03 09:23:00;;;;;;;;;;;18.50;95.90;;;;;;5176859;27;19907;-63
2023/05/03 09:25:39;;;;;;;;;;;18.60;86.70;;;;;;5161860;27;19907;-63
2023/05/03 09:28:04;;;;;;;;;;;18.80;90.90;;;;;;5138942;27;20397;-63
2023/05/03 09:30:30;;;;;;;;;;;18.90;88.40;;;;;;5141557;27;19907;-63
2023/05/03 09:32:56;;;;;;;;;;;18.90;85.00;;;;;;5141609;27;20384;-63
2023/05/03 09:35:21;;;;;;;;;;;19.00;86.30;;;;;;5141681;27;19922;-63
2023/05/03 09:37:47;;;;;;;;;;;19.30;81.40;;;;;;5141869;27;19913;-63
2023/05/03 09:40:17;;;;;;;;;;;19.30;76.80;;;;;;5141404;27;19914;-63
2023/05/03 09:43:15;;;;;;;;;;;19.60;93.80;;;;;;5141702;27;20002;-63
2023/05/03 09:45:41;;;;;;;;;;;19.90;83.00;;;;;;5078572;27;19908;-63
2023/05/03 09:48:07;;;;;;;;;;;20.20;90.10;;;;;;5140470;27;20342;-64
2023/05/03 09:50:33;;;;;;;;;;;20.50;74.50;;;;;;5139852;27;19911;-64
2023/05/03 09:53:03;;;;;;;;;;;20.90;84.00;;;;;;5139700;27;20417;-64
2023/05/03 09:55:32;;;;;;;;;;;21.30;80.10;;;;;;5140960;27;20477;-64
2023/05/03 09:57:58;;;;;;;;;;;21.50;65.80;;;;;;5141297;27;20357;-64
2023/05/03 10:00:24;;;;;;;;;;;21.90;69.30;;;;;;5141175;27;19914;-64
2023/05/03 10:02:53;;;;;;;;;;;22.60;68.40;;;;;;5140976;27;19907;-64
2023/05/03 10:05:20;;;;;;;;;;;22.90;65.40;;;;;;5122994;27;19914;-64
2023/05/03 10:07:48;;;;;;;;;;;23.30;64.70;;;;;;5140960;27;19911;-64
2023/05/03 10:10:13;;;;;;;;;;;24.40;72.40;;;;;;5141007;27;19912;-64
2023/05/03 10:12:39;;;;;;;;;;;25.10;61.80;;;;;;5140753;27;20381;-64
2023/05/03 10:15:06;;;;;;;;;;;25.30;61.00;;;;;;5140856;27;20003;-64
2023/05/03 10:17:35;;;;;;;;;;;25.60;59.00;;;;;;5140810;27;19908;-64
2023/05/03 10:20:01;;;;;;;;;;;26.10;60.40;;;;;;5140688;27;19908;-64
2023/05/03 10:22:26;;;;;;;;;;;25.30;54.10;;;;;;5140934;27;20007;-64
2023/05/03 10:25:01;;;;;;;;;;;24.90;53.00;;;;;;5138241;27;20461;-64
2023/05/03 10:27:40;;;;;;;;;;;24.90;55.00;;;;;;5139607;27;20373;-64
2023/05/03 10:30:08;;;;;;;;;;;25.10;53.30;;;;;;5128434;27;19911;-64
2023/05/03 10:32:35;;;;;;;;;;;25.00;51.60;;;;;;5119775;28;20396;-64
2023/05/03 10:35:08;;;;;;;;;;;25.10;55.00;;;;;;5119268;28;19908;-64
2023/05/03 10:37:35;;;;;;;;;;;25.00;51.10;;;;;;5119388;28;19908;-64
2023/05/03 10:40:14;;;;;;;;;;;25.20;56.50;;;;;;5120278;28;19915;-64
2023/05/03 10:42:48;;;;;;;;;;;25.30;51.50;;;;;;5119617;28;19907;-64
2023/05/03 10:45:24;;;;;;;;;;;26.00;54.50;;;;;;5119360;28;20190;-64
2023/05/03 10:48:25;;;;;;;;;;;26.50;54.10;;;;;;5118675;28;19955;-64
2023/05/03 10:50:51;;;;;;;;;;;26.50;50.50;;;;;;5075159;28;19958;-64
2023/05/03 10:53:35;;;;;;;;;;;26.30;51.20;;;;;;5110907;28;19912;-64
2023/05/03 10:56:07;;;;;;;;;;;26.80;48.60;;;;;;5119709;28;20319;-64
2023/05/03 10:58:35;;;;;;;;;;;26.40;48.00;;;;;;5119365;28;19946;-64
2023/05/03 11:01:02;;;;;;;;;;;25.90;46.90;;;;;;5119360;28;19991;-64
2023/05/03 11:03:33;;;;;;;;;;;26.10;47.90;;;;;;5119520;28;19930;-64
2023/05/03 11:05:59;;;;;;;;;;;25.80;47.00;;;;;;5119272;28;19908;-64
2023/05/03 11:08:29;;;;;;;;;;;25.40;46.70;;;;;;5118933;28;20411;-64
2023/05/03 11:10:58;;;;;;;;;;;25.30;47.90;;;;;;5119376;28;19908;-64
2023/05/03 11:13:24;;;;;;;;;;;25.40;48.00;;;;;;5118098;28;19927;-64
2023/05/03 11:15:52;;;;;;;;;;;25.70;47.30;;;;;;5119246;28;19908;-64
2023/05/03 11:18:17;;;;;;;;;;;25.80;46.30;;;;;;5119405;28;20354;-64
2023/05/03 11:20:43;;;;;;;;;;;25.50;45.60;;;;;;5119333;28;19930;-64
2023/05/03 11:23:10;;;;;;;;;;;25.60;45.40;;;;;;5119078;28;20335;-64
2023/05/03 11:25:37;;;;;;;;;;;25.80;44.70;;;;;;5119422;28;19953;-64
2023/05/03 11:28:03;;;;;;;;;;;25.50;44.50;;;;;;5118993;28;19961;-63
2023/05/03 11:30:31;;;;;;;;;;;25.50;43.70;;;;;;5119123;28;19908;-63
2023/05/03 11:32:58;;;;;;;;;;;25.30;44.00;;;;;;5118797;28;19912;-63
2023/05/03 11:35:25;;;;;;;;;;;24.80;45.50;;;;;;5118806;28;20457;-63
2023/05/03 11:37:52;;;;;;;;;;;24.60;44.60;;;;;;5118578;28;19950;-63
2023/05/03 11:40:18;;;;;;;;;;;24.90;45.10;;;;;;5118706;28;20036;-63
2023/05/03 11:42:54;;;;;;;;;;;25.00;45.60;;;;;;5118632;28;19915;-64
2023/05/03 11:45:28;;;;;;;;;;;25.00;47.00;;;;;;5118833;28;19908;-64
2023/05/03 11:47:54;;;;;;;;;;;25.50;49.00;;;;;;5118414;28;20000;-64
2023/05/03 11:50:42;;;;;;;;;;;26.10;47.60;;;;;;5118873;28;19907;-63
2023/05/03 11:53:07;;;;;;;;;;;25.80;44.60;;;;;;5118690;28;20362;-64
2023/05/03 11:55:36;;;;;;;;;;;26.10;45.20;;;;;;5118502;28;19977;-64
2023/05/03 11:58:02;;;;;;;;;;;26.30;46.30;;;;;;5118446;28;20353;-64
2023/05/03 12:00:28;;;;;;;;;;;26.20;43.90;;;;;;5118501;28;19915;-63
2023/05/03 12:02:57;;;;;;;;;;;26.50;44.20;;;;;;5118111;28;19908;-64
2023/05/03 12:05:23;;;;;;;;;;;26.70;42.20;;;;;;5118323;28;19912;-65
2023/05/03 12:07:49;;;;;;;;;;;26.60;45.50;;;;;;5118658;28;19952;-65
2023/05/03 12:10:18;;;;;;;;;;;27.10;43.30;;;;;;5118095;28;19908;-65
2023/05/03 12:12:53;;;;;;;;;;;27.60;42.50;;;;;;5118474;28;19912;-65
2023/05/03 12:15:26;;;;;;;;;;;27.80;42.60;;;;;;5118535;28;19912;-65
2023/05/03 12:17:54;;;;;;;;;;;27.80;43.90;;;;;;5118525;28;20004;-65
2023/05/03 12:20:21;;;;;;;;;;;27.90;46.40;;;;;;5118010;28;19912;-64
2023/05/03 12:22:47;;;;;;;;;;;27.80;42.50;;;;;;5118437;28;19914;-64
2023/05/03 12:25:13;;;;;;;;;;;28.00;41.80;;;;;;5118313;28;19908;-64
2023/05/03 12:27:39;;;;;;;;;;;28.00;44.10;;;;;;5118597;28;19961;-65
2023/05/03 12:30:05;;;;;;;;;;;28.80;43.00;;;;;;5118189;28;20277;-65
2023/05/03 12:32:30;;;;;;;;;;;29.00;43.60;;;;;;5118206;28;19912;-65
2023/05/03 12:34:56;;;;;;;;;;;29.40;40.60;;;;;;5118454;28;19915;-65
2023/05/03 12:37:22;;;;;;;;;;;29.90;41.90;;;;;;5118045;28;19973;-65
2023/05/03 12:39:47;;;;;;;;;;;29.80;42.20;;;;;;5118319;28;19998;-65
2023/05/03 12:42:13;;;;;;;;;;;29.40;41.60;;;;;;5118119;28;19929;-65
2023/05/03 12:44:39;;;;;;;;;;;29.10;42.40;;;;;;5118269;28;19907;-65
2023/05/03 12:47:05;;;;;;;;;;;29.10;39.70;;;;;;5117797;28;19908;-64
2023/05/03 12:49:31;;;;;;;;;;;28.90;37.60;;;;;;5117964;28;19983;-65
2023/05/03 12:51:59;;;;;;;;;;;28.50;38.80;;;;;;5117912;28;19931;-64
2023/05/03 12:54:25;;;;;;;;;;;28.30;38.90;;;;;;5117757;28;19915;-64
2023/05/03 12:56:51;;;;;;;;;;;27.80;38.90;;;;;;5118108;28;19951;-64
2023/05/03 12:59:16;;;;;;;;;;;27.50;37.60;;;;;;5119462;28;19908;-64
2023/05/03 13:01:42;;;;;;;;;;;27.00;38.40;;;;;;5121796;28;20365;-64
2023/05/03 13:04:08;;;;;;;;;;;26.80;39.10;;;;;;5121925;28;19907;-64
2023/05/03 13:06:35;;;;;;;;;;;26.50;38.60;;;;;;5121878;28;19914;-64
2023/05/03 13:09:01;;;;;;;;;;;26.80;39.70;;;;;;5121717;28;19915;-64
2023/05/03 13:11:28;;;;;;;;;;;26.70;39.70;;;;;;5121530;28;19957;-64
2023/05/03 13:13:54;;;;;;;;;;;26.90;42.40;;;;;;5121385;28;19927;-64
2023/05/03 13:16:20;;;;;;;;;;;27.10;39.20;;;;;;5121595;28;19908;-64
2023/05/03 13:18:46;;;;;;;;;;;27.00;40.10;;;;;;5121611;28;19912;-64
2023/05/03 13:21:11;;;;;;;;;;;27.00;39.90;;;;;;5121469;28;19907;-64
2023/05/03 13:23:37;;;;;;;;;;;26.90;39.00;;;;;;5121218;28;19907;-64
2023/05/03 13:26:02;;;;;;;;;;;26.80;39.20;;;;;;5121588;28;19991;-64
2023/05/03 13:28:29;;;;;;;;;;;26.50;39.30;;;;;;5121385;28;19915;-65
2023/05/03 13:30:55;;;;;;;;;;;26.00;39.10;;;;;;5121063;28;19954;-64
2023/05/03 13:33:20;;;;;;;;;;;25.90;39.90;;;;;;5121006;28;20258;-64
2023/05/03 13:35:46;;;;;;;;;;;25.80;39.50;;;;;;5121388;28;19912;-64
2023/05/03 13:38:11;;;;;;;;;;;25.70;41.30;;;;;;5121226;28;19912;-64
2023/05/03 13:40:37;;;;;;;;;;;26.00;42.10;;;;;;5121276;28;20445;-65
2023/05/03 13:43:03;;;;;;;;;;;26.10;41.90;;;;;;5120881;28;19950;-65
2023/05/03 13:45:28;;;;;;;;;;;26.10;41.90;;;;;;5121165;28;19908;-65
2023/05/03 13:47:54;;;;;;;;;;;26.40;41.40;;;;;;5121233;28;19915;-61
2023/05/03 13:50:20;;;;;;;;;;;26.30;40.50;;;;;;5120734;28;19951;-61
2023/05/03 13:52:45;;;;;;;;;;;26.20;41.10;;;;;;5120291;28;19916;-61
2023/05/03 13:55:11;;;;;;;;;;;26.60;42.50;;;;;;5120901;28;19957;-61
2023/05/03 13:57:37;;;;;;;;;;;26.90;39.60;;;;;;5120588;28;19957;-61
2023/05/03 14:00:04;;;;;;;;;;;26.60;39.50;;;;;;5120840;28;19911;-61
2023/05/03 14:02:30;;;;;;;;;;;26.90;40.70;;;;;;5121518;28;20342;-61
2023/05/03 14:04:55;;;;;;;;;;;26.90;41.00;;;;;;5102138;28;19934;-61
2023/05/03 14:07:21;;;;;;;;;;;26.80;41.50;;;;;;5120548;28;19946;-61
2023/05/03 14:09:47;;;;;;;;;;;26.80;40.40;;;;;;5120554;28;19915;-61
2023/05/03 14:12:12;;;;;;;;;;;26.70;41.40;;;;;;5120489;28;19915;-61
2023/05/03 14:14:38;;;;;;;;;;;26.50;40.80;;;;;;5120038;28;19963;-61
2023/05/03 14:17:04;;;;;;;;;;;26.40;39.90;;;;;;5120395;28;19908;-61
2023/05/03 14:19:33;;;;;;;;;;;26.10;41.20;;;;;;5120441;28;19914;-61
2023/05/03 14:21:59;;;;;;;;;;;25.90;41.10;;;;;;5120437;28;19912;-61
2023/05/03 14:24:25;;;;;;;;;;;25.60;40.30;;;;;;5120011;28;19958;-61
2023/05/03 14:26:51;;;;;;;;;;;26.00;41.60;;;;;;5119996;28;19915;-61
2023/05/03 14:29:17;;;;;;;;;;;26.10;40.30;;;;;;5119894;28;19907;-61
2023/05/03 14:31:42;;;;;;;;;;;25.90;41.70;;;;;;5120090;28;19914;-61
2023/05/03 14:34:08;;;;;;;;;;;25.80;39.30;;;;;;5119849;28;19915;-61
2023/05/03 14:36:37;;;;;;;;;;;25.50;40.50;;;;;;5120194;28;19915;-61